sensor_id;sensor_type;location;lat;lon;timestamp;temperature;humidity
23629;DHT22;11991;57.150;-2.134;2022-08-21T00:00:29;13.60;99.90
23629;DHT22;11991;57.150;-2.134;2022-08-21T00:03:03;13.60;99.90
23629;DHT22;11991;57.150;-2.134;2022-08-21T00:05:35;13.50;99.90
23629;DHT22;11991;57.150;-2.134;2022-08-21T00:08:03;13.50;99.90
23629;DHT22;11991;57.150;-2.134;2022-08-21T00:10:30;13.50;99.90
23629;DHT22;11991;57.150;-2.134;2022-08-21T00:12:59;13.40;99.90
23629;DHT22;11991;57.150;-2.134;2022-08-21T00:15:29;13.40;99.90
23629;DHT22;11991;57.150;-2.134;2022-08-21T00:17:57;13.30;99.90
23629;DHT22;11991;57.150;-2.134;2022-08-21T00:20:26;13.30;99.90
23629;DHT22;11991;57.150;-2.134;2022-08-21T00:22:53;13.30;99.90
23629;DHT22;11991;57.150;-2.134;2022-08-21T00:25:23;13.30;99.90
23629;DHT22;11991;57.150;-2.134;2022-08-21T00:27:52;13.30;99.90
23629;DHT22;11991;57.150;-2.134;2022-08-21T00:30:21;13.40;99.90
23629;DHT22;11991;57.150;-2.134;2022-08-21T00:32:50;13.30;99.90
23629;DHT22;11991;57.150;-2.134;2022-08-21T00:35:21;13.30;99.90
23629;DHT22;11991;57.150;-2.134;2022-08-21T00:37:49;13.30;99.90
23629;DHT22;11991;57.150;-2.134;2022-08-21T00:40:20;13.30;99.90
23629;DHT22;11991;57.150;-2.134;2022-08-21T00:42:47;13.30;99.90
23629;DHT22;11991;57.150;-2.134;2022-08-21T00:45:21;13.30;99.90
23629;DHT22;11991;57.150;-2.134;2022-08-21T00:47:50;13.30;99.90
23629;DHT22;11991;57.150;-2.134;2022-08-21T00:50:19;13.30;99.90
23629;DHT22;11991;57.150;-2.134;2022-08-21T00:52:50;13.30;99.90
23629;DHT22;11991;57.150;-2.134;2022-08-21T00:55:20;13.30;99.90
23629;DHT22;11991;57.150;-2.134;2022-08-21T00:57:54;13.30;99.90
23629;DHT22;11991;57.150;-2.134;2022-08-21T01:00:27;13.30;99.90
23629;DHT22;11991;57.150;-2.134;2022-08-21T01:02:58;13.30;99.90
23629;DHT22;11991;57.150;-2.134;2022-08-21T01:05:26;13.30;99.90
23629;DHT22;11991;57.150;-2.134;2022-08-21T01:07:54;13.30;99.90
23629;DHT22;11991;57.150;-2.134;2022-08-21T01:10:24;13.30;99.90
23629;DHT22;11991;57.150;-2.134;2022-08-21T01:12:54;13.30;99.90
23629;DHT22;11991;57.150;-2.134;2022-08-21T01:15:25;13.20;99.90
23629;DHT22;11991;57.150;-2.134;2022-08-21T01:17:55;13.20;99.90
23629;DHT22;11991;57.150;-2.134;2022-08-21T01:20:23;13.20;99.90
23629;DHT22;11991;57.150;-2.134;2022-08-21T01:23:00;13.20;99.90
23629;DHT22;11991;57.150;-2.134;2022-08-21T01:25:27;13.20;99.90
23629;DHT22;11991;57.150;-2.134;2022-08-21T01:27:57;13.20;99.90
23629;DHT22;11991;57.150;-2.134;2022-08-21T01:30:28;13.20;99.90
23629;DHT22;11991;57.150;-2.134;2022-08-21T01:32:56;13.20;99.90
23629;DHT22;11991;57.150;-2.134;2022-08-21T01:35:24;13.20;99.90
23629;DHT22;11991;57.150;-2.134;2022-08-21T01:37:51;13.10;99.90
23629;DHT22;11991;57.150;-2.134;2022-08-21T01:40:18;13.10;99.90
23629;DHT22;11991;57.150;-2.134;2022-08-21T01:42:46;13.10;99.90
23629;DHT22;11991;57.150;-2.134;2022-08-21T01:45:14;13.10;99.90
23629;DHT22;11991;57.150;-2.134;2022-08-21T01:47:43;13.10;99.90
23629;DHT22;11991;57.150;-2.134;2022-08-21T01:50:13;13.00;99.90
23629;DHT22;11991;57.150;-2.134;2022-08-21T01:52:41;13.00;99.90
23629;DHT22;11991;57.150;-2.134;2022-08-21T01:55:11;13.00;99.90
23629;DHT22;11991;57.150;-2.134;2022-08-21T01:57:39;13.00;99.90
23629;DHT22;11991;57.150;-2.134;2022-08-21T02:00:09;13.00;99.90
23629;DHT22;11991;57.150;-2.134;2022-08-21T02:02:39;12.90;99.90
23629;DHT22;11991;57.150;-2.134;2022-08-21T02:05:09;12.90;99.90
23629;DHT22;11991;57.150;-2.134;2022-08-21T02:07:41;12.80;99.90
23629;DHT22;11991;57.150;-2.134;2022-08-21T02:10:12;12.80;99.90
23629;DHT22;11991;57.150;-2.134;2022-08-21T02:12:40;12.80;99.90
23629;DHT22;11991;57.150;-2.134;2022-08-21T02:15:07;12.80;99.90
23629;DHT22;11991;57.150;-2.134;2022-08-21T02:17:45;12.80;99.90
23629;DHT22;11991;57.150;-2.134;2022-08-21T02:20:20;12.70;99.90
23629;DHT22;11991;57.150;-2.134;2022-08-21T02:22:48;12.70;99.90
23629;DHT22;11991;57.150;-2.134;2022-08-21T02:25:17;12.70;99.90
23629;DHT22;11991;57.150;-2.134;2022-08-21T02:27:46;12.60;99.90
23629;DHT22;11991;57.150;-2.134;2022-08-21T02:30:27;12.60;99.90
23629;DHT22;11991;57.150;-2.134;2022-08-21T02:32:55;12.60;99.90
23629;DHT22;11991;57.150;-2.134;2022-08-21T02:35:23;12.60;99.90
23629;DHT22;11991;57.150;-2.134;2022-08-21T02:37:54;12.60;99.90
23629;DHT22;11991;57.150;-2.134;2022-08-21T02:40:26;12.60;99.90
23629;DHT22;11991;57.150;-2.134;2022-08-21T02:42:54;12.60;99.90
23629;DHT22;11991;57.150;-2.134;2022-08-21T02:45:21;12.60;99.90
23629;DHT22;11991;57.150;-2.134;2022-08-21T02:47:54;12.60;99.90
23629;DHT22;11991;57.150;-2.134;2022-08-21T02:50:29;12.60;99.90
23629;DHT22;11991;57.150;-2.134;2022-08-21T02:52:56;12.50;99.90
23629;DHT22;11991;57.150;-2.134;2022-08-21T02:55:27;12.50;99.90
23629;DHT22;11991;57.150;-2.134;2022-08-21T02:57:55;12.50;99.90
23629;DHT22;11991;57.150;-2.134;2022-08-21T03:00:25;12.50;99.90
23629;DHT22;11991;57.150;-2.134;2022-08-21T03:02:53;12.50;99.90
23629;DHT22;11991;57.150;-2.134;2022-08-21T03:05:24;12.50;99.90
23629;DHT22;11991;57.150;-2.134;2022-08-21T03:07:51;12.40;99.90
23629;DHT22;11991;57.150;-2.134;2022-08-21T03:10:22;12.40;99.90
23629;DHT22;11991;57.150;-2.134;2022-08-21T03:12:49;12.40;99.90
23629;DHT22;11991;57.150;-2.134;2022-08-21T03:15:19;12.40;99.90
23629;DHT22;11991;57.150;-2.134;2022-08-21T03:17:47;12.30;99.90
23629;DHT22;11991;57.150;-2.134;2022-08-21T03:20:21;12.40;99.90
23629;DHT22;11991;57.150;-2.134;2022-08-21T03:22:51;12.30;99.90
23629;DHT22;11991;57.150;-2.134;2022-08-21T03:25:21;12.30;99.90
23629;DHT22;11991;57.150;-2.134;2022-08-21T03:28:10;12.30;99.90
23629;DHT22;11991;57.150;-2.134;2022-08-21T03:30:45;12.30;99.90
23629;DHT22;11991;57.150;-2.134;2022-08-21T03:33:13;12.30;99.90
23629;DHT22;11991;57.150;-2.134;2022-08-21T03:35:56;12.30;99.90
23629;DHT22;11991;57.150;-2.134;2022-08-21T03:38:24;12.30;99.90
23629;DHT22;11991;57.150;-2.134;2022-08-21T03:40:53;12.30;99.90
23629;DHT22;11991;57.150;-2.134;2022-08-21T03:43:20;12.30;99.90
23629;DHT22;11991;57.150;-2.134;2022-08-21T03:45:48;12.30;99.90
23629;DHT22;11991;57.150;-2.134;2022-08-21T03:48:19;12.30;99.90
23629;DHT22;11991;57.150;-2.134;2022-08-21T03:50:46;12.40;99.90
23629;DHT22;11991;57.150;-2.134;2022-08-21T03:53:16;12.40;99.90
23629;DHT22;11991;57.150;-2.134;2022-08-21T03:55:46;12.40;99.90
23629;DHT22;11991;57.150;-2.134;2022-08-21T03:58:15;12.50;99.90
23629;DHT22;11991;57.150;-2.134;2022-08-21T04:00:46;12.50;99.90
23629;DHT22;11991;57.150;-2.134;2022-08-21T04:03:13;12.60;99.90
23629;DHT22;11991;57.150;-2.134;2022-08-21T04:05:41;12.60;99.90
23629;DHT22;11991;57.150;-2.134;2022-08-21T04:08:09;12.60;99.90
23629;DHT22;11991;57.150;-2.134;2022-08-21T04:10:37;12.60;99.90
23629;DHT22;11991;57.150;-2.134;2022-08-21T04:13:06;12.70;99.90
23629;DHT22;11991;57.150;-2.134;2022-08-21T04:15:34;12.70;99.90
23629;DHT22;11991;57.150;-2.134;2022-08-21T04:18:03;12.70;99.90
23629;DHT22;11991;57.150;-2.134;2022-08-21T04:20:31;12.70;99.90
23629;DHT22;11991;57.150;-2.134;2022-08-21T04:22:58;12.70;99.90
23629;DHT22;11991;57.150;-2.134;2022-08-21T04:25:25;12.70;99.90
23629;DHT22;11991;57.150;-2.134;2022-08-21T04:27:53;12.70;99.90
23629;DHT22;11991;57.150;-2.134;2022-08-21T04:30:21;12.70;99.90
23629;DHT22;11991;57.150;-2.134;2022-08-21T04:32:56;12.70;99.90
23629;DHT22;11991;57.150;-2.134;2022-08-21T04:35:26;12.70;99.90
23629;DHT22;11991;57.150;-2.134;2022-08-21T04:37:53;12.70;99.90
23629;DHT22;11991;57.150;-2.134;2022-08-21T04:40:26;12.80;99.90
23629;DHT22;11991;57.150;-2.134;2022-08-21T04:42:58;12.80;99.90
23629;DHT22;11991;57.150;-2.134;2022-08-21T04:45:34;12.80;99.90
23629;DHT22;11991;57.150;-2.134;2022-08-21T04:48:04;12.80;99.90
23629;DHT22;11991;57.150;-2.134;2022-08-21T04:53:14;12.80;99.90
23629;DHT22;11991;57.150;-2.134;2022-08-21T04:55:43;12.80;99.90
23629;DHT22;11991;57.150;-2.134;2022-08-21T04:58:13;12.80;99.90
23629;DHT22;11991;57.150;-2.134;2022-08-21T05:00:41;12.80;99.90
23629;DHT22;11991;57.150;-2.134;2022-08-21T05:03:09;12.70;99.90
23629;DHT22;11991;57.150;-2.134;2022-08-21T05:05:38;12.70;99.90
23629;DHT22;11991;57.150;-2.134;2022-08-21T05:08:07;12.70;99.90
23629;DHT22;11991;57.150;-2.134;2022-08-21T05:10:38;12.70;99.90
23629;DHT22;11991;57.150;-2.134;2022-08-21T05:13:06;12.70;99.90
23629;DHT22;11991;57.150;-2.134;2022-08-21T05:15:33;12.70;99.90
23629;DHT22;11991;57.150;-2.134;2022-08-21T05:18:01;12.70;99.90
23629;DHT22;11991;57.150;-2.134;2022-08-21T05:20:28;12.70;99.90
23629;DHT22;11991;57.150;-2.134;2022-08-21T05:22:56;12.70;99.90
23629;DHT22;11991;57.150;-2.134;2022-08-21T05:25:23;12.70;99.90
23629;DHT22;11991;57.150;-2.134;2022-08-21T05:27:54;12.70;99.90
23629;DHT22;11991;57.150;-2.134;2022-08-21T05:30:24;12.80;99.90
23629;DHT22;11991;57.150;-2.134;2022-08-21T05:32:59;12.70;99.90
23629;DHT22;11991;57.150;-2.134;2022-08-21T05:35:27;12.80;99.90
23629;DHT22;11991;57.150;-2.134;2022-08-21T05:37:56;12.80;99.90
23629;DHT22;11991;57.150;-2.134;2022-08-21T05:40:24;12.80;99.90
23629;DHT22;11991;57.150;-2.134;2022-08-21T05:42:53;12.70;99.90
23629;DHT22;11991;57.150;-2.134;2022-08-21T05:45:23;12.80;99.90
23629;DHT22;11991;57.150;-2.134;2022-08-21T05:48:16;12.80;99.90
23629;DHT22;11991;57.150;-2.134;2022-08-21T05:50:45;12.80;99.90
23629;DHT22;11991;57.150;-2.134;2022-08-21T05:53:14;12.80;99.90
23629;DHT22;11991;57.150;-2.134;2022-08-21T05:55:43;12.80;99.90
23629;DHT22;11991;57.150;-2.134;2022-08-21T05:58:13;12.80;99.90
23629;DHT22;11991;57.150;-2.134;2022-08-21T06:00:42;12.80;99.90
23629;DHT22;11991;57.150;-2.134;2022-08-21T06:03:28;12.80;99.90
23629;DHT22;11991;57.150;-2.134;2022-08-21T06:05:56;12.80;99.90
23629;DHT22;11991;57.150;-2.134;2022-08-21T06:08:23;12.70;99.90
23629;DHT22;11991;57.150;-2.134;2022-08-21T06:10:52;12.70;99.90
23629;DHT22;11991;57.150;-2.134;2022-08-21T06:13:20;12.80;99.90
23629;DHT22;11991;57.150;-2.134;2022-08-21T06:15:49;12.80;99.90
23629;DHT22;11991;57.150;-2.134;2022-08-21T06:18:17;12.80;99.90
23629;DHT22;11991;57.150;-2.134;2022-08-21T06:20:45;12.80;99.90
23629;DHT22;11991;57.150;-2.134;2022-08-21T06:23:12;12.80;99.90
23629;DHT22;11991;57.150;-2.134;2022-08-21T06:25:39;12.90;99.90
23629;DHT22;11991;57.150;-2.134;2022-08-21T06:28:08;13.00;99.90
23629;DHT22;11991;57.150;-2.134;2022-08-21T06:30:38;13.00;99.90
23629;DHT22;11991;57.150;-2.134;2022-08-21T06:33:07;13.00;99.90
23629;DHT22;11991;57.150;-2.134;2022-08-21T06:35:35;13.10;99.90
23629;DHT22;11991;57.150;-2.134;2022-08-21T06:38:03;13.10;99.90
23629;DHT22;11991;57.150;-2.134;2022-08-21T06:40:30;13.10;99.90
23629;DHT22;11991;57.150;-2.134;2022-08-21T06:43:10;13.20;99.90
23629;DHT22;11991;57.150;-2.134;2022-08-21T06:45:41;13.20;99.90
23629;DHT22;11991;57.150;-2.134;2022-08-21T06:48:08;13.20;99.90
23629;DHT22;11991;57.150;-2.134;2022-08-21T06:50:39;13.20;99.90
23629;DHT22;11991;57.150;-2.134;2022-08-21T06:53:10;13.20;99.90
23629;DHT22;11991;57.150;-2.134;2022-08-21T06:55:39;13.30;99.90
23629;DHT22;11991;57.150;-2.134;2022-08-21T06:58:07;13.30;99.90
23629;DHT22;11991;57.150;-2.134;2022-08-21T07:00:38;13.30;99.90
23629;DHT22;11991;57.150;-2.134;2022-08-21T07:03:05;13.40;99.90
23629;DHT22;11991;57.150;-2.134;2022-08-21T07:05:33;13.40;99.90
23629;DHT22;11991;57.150;-2.134;2022-08-21T07:08:00;13.50;99.90
23629;DHT22;11991;57.150;-2.134;2022-08-21T07:10:28;13.60;99.90
23629;DHT22;11991;57.150;-2.134;2022-08-21T07:12:55;13.70;99.90
23629;DHT22;11991;57.150;-2.134;2022-08-21T07:15:30;13.70;99.90
23629;DHT22;11991;57.150;-2.134;2022-08-21T07:17:59;13.90;99.90
23629;DHT22;11991;57.150;-2.134;2022-08-21T07:20:28;13.90;99.90
23629;DHT22;11991;57.150;-2.134;2022-08-21T07:22:59;14.00;99.90
23629;DHT22;11991;57.150;-2.134;2022-08-21T07:25:27;14.10;99.90
23629;DHT22;11991;57.150;-2.134;2022-08-21T07:27:55;14.10;99.90
23629;DHT22;11991;57.150;-2.134;2022-08-21T07:30:23;14.20;99.90
23629;DHT22;11991;57.150;-2.134;2022-08-21T07:32:51;14.30;99.90
23629;DHT22;11991;57.150;-2.134;2022-08-21T07:35:19;14.30;99.90
23629;DHT22;11991;57.150;-2.134;2022-08-21T07:37:47;14.30;99.90
23629;DHT22;11991;57.150;-2.134;2022-08-21T07:40:16;14.40;99.90
23629;DHT22;11991;57.150;-2.134;2022-08-21T07:42:46;14.40;99.90
23629;DHT22;11991;57.150;-2.134;2022-08-21T07:45:15;14.50;99.90
23629;DHT22;11991;57.150;-2.134;2022-08-21T07:47:43;14.50;99.90
23629;DHT22;11991;57.150;-2.134;2022-08-21T07:50:16;14.60;99.90
23629;DHT22;11991;57.150;-2.134;2022-08-21T07:52:44;14.60;99.90
23629;DHT22;11991;57.150;-2.134;2022-08-21T07:55:14;14.60;99.90
23629;DHT22;11991;57.150;-2.134;2022-08-21T07:57:43;14.70;99.90
23629;DHT22;11991;57.150;-2.134;2022-08-21T08:00:15;14.80;99.90
23629;DHT22;11991;57.150;-2.134;2022-08-21T08:20:08;15.30;99.90
23629;DHT22;11991;57.150;-2.134;2022-08-21T08:22:37;15.30;99.90
23629;DHT22;11991;57.150;-2.134;2022-08-21T08:25:07;15.30;99.90
23629;DHT22;11991;57.150;-2.134;2022-08-21T08:27:36;15.40;99.90
23629;DHT22;11991;57.150;-2.134;2022-08-21T08:30:06;15.40;99.90
23629;DHT22;11991;57.150;-2.134;2022-08-21T08:32:34;15.50;99.90
23629;DHT22;11991;57.150;-2.134;2022-08-21T08:35:01;15.50;99.90
23629;DHT22;11991;57.150;-2.134;2022-08-21T08:37:30;15.60;99.90
23629;DHT22;11991;57.150;-2.134;2022-08-21T08:40:00;15.60;99.90
23629;DHT22;11991;57.150;-2.134;2022-08-21T08:42:33;15.70;99.90
23629;DHT22;11991;57.150;-2.134;2022-08-21T08:45:08;15.70;99.90
23629;DHT22;11991;57.150;-2.134;2022-08-21T08:47:48;15.80;99.90
23629;DHT22;11991;57.150;-2.134;2022-08-21T08:50:20;15.80;99.90
23629;DHT22;11991;57.150;-2.134;2022-08-21T08:52:54;15.90;99.90
23629;DHT22;11991;57.150;-2.134;2022-08-21T08:55:39;15.90;99.90
23629;DHT22;11991;57.150;-2.134;2022-08-21T08:58:12;16.00;99.90
23629;DHT22;11991;57.150;-2.134;2022-08-21T09:00:44;16.10;99.90
23629;DHT22;11991;57.150;-2.134;2022-08-21T09:03:13;16.30;99.90
23629;DHT22;11991;57.150;-2.134;2022-08-21T09:11:12;16.60;99.90
23629;DHT22;11991;57.150;-2.134;2022-08-21T09:17:04;16.70;99.90
23629;DHT22;11991;57.150;-2.134;2022-08-21T09:20:00;16.80;99.90
23629;DHT22;11991;57.150;-2.134;2022-08-21T09:27:50;16.80;99.90
23629;DHT22;11991;57.150;-2.134;2022-08-21T09:30:20;16.70;99.90
23629;DHT22;11991;57.150;-2.134;2022-08-21T09:32:50;16.70;99.90
23629;DHT22;11991;57.150;-2.134;2022-08-21T09:35:22;16.70;99.90
23629;DHT22;11991;57.150;-2.134;2022-08-21T09:37:59;16.70;99.90
23629;DHT22;11991;57.150;-2.134;2022-08-21T09:45:40;16.70;99.90
23629;DHT22;11991;57.150;-2.134;2022-08-21T09:48:19;16.60;99.90
23629;DHT22;11991;57.150;-2.134;2022-08-21T09:50:48;16.70;99.90
23629;DHT22;11991;57.150;-2.134;2022-08-21T09:53:28;16.80;99.90
23629;DHT22;11991;57.150;-2.134;2022-08-21T09:56:14;16.80;99.90
23629;DHT22;11991;57.150;-2.134;2022-08-21T09:59:13;16.90;99.90
23629;DHT22;11991;57.150;-2.134;2022-08-21T10:01:47;17.00;99.90
23629;DHT22;11991;57.150;-2.134;2022-08-21T10:04:15;17.00;99.90
23629;DHT22;11991;57.150;-2.134;2022-08-21T10:06:46;17.00;99.90
23629;DHT22;11991;57.150;-2.134;2022-08-21T10:09:19;17.00;99.90
23629;DHT22;11991;57.150;-2.134;2022-08-21T10:12:21;16.90;99.90
23629;DHT22;11991;57.150;-2.134;2022-08-21T10:28:00;16.80;99.90
23629;DHT22;11991;57.150;-2.134;2022-08-21T10:47:35;17.00;99.90
23629;DHT22;11991;57.150;-2.134;2022-08-21T10:50:25;17.00;99.90
23629;DHT22;11991;57.150;-2.134;2022-08-21T10:56:36;17.10;99.90
23629;DHT22;11991;57.150;-2.134;2022-08-21T10:59:04;17.10;99.90
23629;DHT22;11991;57.150;-2.134;2022-08-21T11:01:53;17.20;99.90
23629;DHT22;11991;57.150;-2.134;2022-08-21T11:04:34;17.20;99.90
23629;DHT22;11991;57.150;-2.134;2022-08-21T11:07:20;17.30;99.90
23629;DHT22;11991;57.150;-2.134;2022-08-21T11:09:49;17.20;99.90
23629;DHT22;11991;57.150;-2.134;2022-08-21T11:12:36;17.10;99.90
23629;DHT22;11991;57.150;-2.134;2022-08-21T11:18:10;16.90;99.90
23629;DHT22;11991;57.150;-2.134;2022-08-21T11:21:08;16.90;99.90
23629;DHT22;11991;57.150;-2.134;2022-08-21T11:23:48;16.90;99.90
23629;DHT22;11991;57.150;-2.134;2022-08-21T11:26:27;16.90;99.90
23629;DHT22;11991;57.150;-2.134;2022-08-21T11:29:04;16.90;99.90
23629;DHT22;11991;57.150;-2.134;2022-08-21T11:37:29;16.90;99.90
23629;DHT22;11991;57.150;-2.134;2022-08-21T11:42:50;16.90;99.90
23629;DHT22;11991;57.150;-2.134;2022-08-21T11:50:59;16.90;99.90
23629;DHT22;11991;57.150;-2.134;2022-08-21T11:56:04;17.00;99.90
23629;DHT22;11991;57.150;-2.134;2022-08-21T11:58:39;17.10;99.90
23629;DHT22;11991;57.150;-2.134;2022-08-21T12:01:15;17.20;99.90
23629;DHT22;11991;57.150;-2.134;2022-08-21T12:04:01;17.30;99.90
23629;DHT22;11991;57.150;-2.134;2022-08-21T12:06:40;17.30;99.90
23629;DHT22;11991;57.150;-2.134;2022-08-21T12:09:32;17.30;99.90
23629;DHT22;11991;57.150;-2.134;2022-08-21T12:14:48;17.60;99.90
23629;DHT22;11991;57.150;-2.134;2022-08-21T12:17:19;17.70;99.90
23629;DHT22;11991;57.150;-2.134;2022-08-21T12:19:58;17.80;99.90
23629;DHT22;11991;57.150;-2.134;2022-08-21T12:22:38;17.80;99.90
23629;DHT22;11991;57.150;-2.134;2022-08-21T12:25:11;17.80;99.90
23629;DHT22;11991;57.150;-2.134;2022-08-21T12:27:51;17.80;99.90
23629;DHT22;11991;57.150;-2.134;2022-08-21T12:33:02;17.80;99.90
23629;DHT22;11991;57.150;-2.134;2022-08-21T12:35:39;17.90;99.90
23629;DHT22;11991;57.150;-2.134;2022-08-21T12:41:03;18.10;99.90
23629;DHT22;11991;57.150;-2.134;2022-08-21T12:43:43;18.30;99.90
23629;DHT22;11991;57.150;-2.134;2022-08-21T12:46:51;18.40;99.90
23629;DHT22;11991;57.150;-2.134;2022-08-21T12:54:31;19.00;99.90
23629;DHT22;11991;57.150;-2.134;2022-08-21T12:57:02;19.10;99.90
23629;DHT22;11991;57.150;-2.134;2022-08-21T12:59:31;19.10;99.90
23629;DHT22;11991;57.150;-2.134;2022-08-21T13:02:01;19.20;99.90
23629;DHT22;11991;57.150;-2.134;2022-08-21T13:04:38;19.30;99.90
23629;DHT22;11991;57.150;-2.134;2022-08-21T13:07:12;19.40;99.90
23629;DHT22;11991;57.150;-2.134;2022-08-21T13:09:51;19.50;99.90
23629;DHT22;11991;57.150;-2.134;2022-08-21T13:12:20;19.50;99.90
23629;DHT22;11991;57.150;-2.134;2022-08-21T13:14:49;19.60;99.90
23629;DHT22;11991;57.150;-2.134;2022-08-21T13:17:24;19.70;99.90
23629;DHT22;11991;57.150;-2.134;2022-08-21T13:20:03;19.70;99.90
23629;DHT22;11991;57.150;-2.134;2022-08-21T13:22:31;19.70;99.90
23629;DHT22;11991;57.150;-2.134;2022-08-21T13:25:02;19.70;99.90
23629;DHT22;11991;57.150;-2.134;2022-08-21T13:27:33;19.80;99.90
23629;DHT22;11991;57.150;-2.134;2022-08-21T13:30:13;20.00;99.90
23629;DHT22;11991;57.150;-2.134;2022-08-21T13:32:48;20.10;99.90
23629;DHT22;11991;57.150;-2.134;2022-08-21T13:35:24;20.30;99.90
23629;DHT22;11991;57.150;-2.134;2022-08-21T13:37:54;20.20;99.90
23629;DHT22;11991;57.150;-2.134;2022-08-21T13:40:29;20.10;99.90
23629;DHT22;11991;57.150;-2.134;2022-08-21T13:42:57;20.10;99.90
23629;DHT22;11991;57.150;-2.134;2022-08-21T13:45:31;20.10;99.90
23629;DHT22;11991;57.150;-2.134;2022-08-21T13:48:01;19.90;99.90
23629;DHT22;11991;57.150;-2.134;2022-08-21T13:50:35;19.80;99.90
23629;DHT22;11991;57.150;-2.134;2022-08-21T13:53:06;19.60;99.90
23629;DHT22;11991;57.150;-2.134;2022-08-21T13:58:04;19.60;99.90
23629;DHT22;11991;57.150;-2.134;2022-08-21T14:00:34;19.50;99.90
23629;DHT22;11991;57.150;-2.134;2022-08-21T14:03:06;19.60;99.90
23629;DHT22;11991;57.150;-2.134;2022-08-21T14:05:37;19.60;99.90
23629;DHT22;11991;57.150;-2.134;2022-08-21T14:10:44;19.40;99.90
23629;DHT22;11991;57.150;-2.134;2022-08-21T14:16:20;19.30;99.90
23629;DHT22;11991;57.150;-2.134;2022-08-21T14:19:27;19.40;99.90
23629;DHT22;11991;57.150;-2.134;2022-08-21T14:21:55;19.50;99.90
23629;DHT22;11991;57.150;-2.134;2022-08-21T14:27:05;19.70;99.90
23629;DHT22;11991;57.150;-2.134;2022-08-21T14:29:40;19.70;99.90
23629;DHT22;11991;57.150;-2.134;2022-08-21T14:32:25;19.70;99.90
23629;DHT22;11991;57.150;-2.134;2022-08-21T14:34:53;19.70;99.90
23629;DHT22;11991;57.150;-2.134;2022-08-21T14:37:25;19.50;99.90
23629;DHT22;11991;57.150;-2.134;2022-08-21T14:39:52;19.40;99.90
23629;DHT22;11991;57.150;-2.134;2022-08-21T14:42:20;19.50;99.90
23629;DHT22;11991;57.150;-2.134;2022-08-21T14:44:47;19.50;99.90
23629;DHT22;11991;57.150;-2.134;2022-08-21T14:47:15;19.70;99.90
23629;DHT22;11991;57.150;-2.134;2022-08-21T14:49:42;19.80;99.90
23629;DHT22;11991;57.150;-2.134;2022-08-21T14:52:09;19.90;99.90
23629;DHT22;11991;57.150;-2.134;2022-08-21T14:54:37;19.80;99.90
23629;DHT22;11991;57.150;-2.134;2022-08-21T14:57:08;19.70;99.90
23629;DHT22;11991;57.150;-2.134;2022-08-21T14:59:36;19.70;99.90
23629;DHT22;11991;57.150;-2.134;2022-08-21T15:02:08;19.50;99.90
23629;DHT22;11991;57.150;-2.134;2022-08-21T15:04:35;19.40;99.90
23629;DHT22;11991;57.150;-2.134;2022-08-21T15:07:04;19.30;99.90
23629;DHT22;11991;57.150;-2.134;2022-08-21T15:09:32;19.20;99.90
23629;DHT22;11991;57.150;-2.134;2022-08-21T15:12:01;19.20;99.90
23629;DHT22;11991;57.150;-2.134;2022-08-21T15:14:30;19.10;99.90
23629;DHT22;11991;57.150;-2.134;2022-08-21T15:16:59;19.10;99.90
23629;DHT22;11991;57.150;-2.134;2022-08-21T15:19:26;19.00;99.90
23629;DHT22;11991;57.150;-2.134;2022-08-21T15:21:56;18.80;99.90
23629;DHT22;11991;57.150;-2.134;2022-08-21T15:24:24;18.60;99.90
23629;DHT22;11991;57.150;-2.134;2022-08-21T15:26:53;18.50;99.90
23629;DHT22;11991;57.150;-2.134;2022-08-21T15:29:22;18.40;99.90
23629;DHT22;11991;57.150;-2.134;2022-08-21T15:31:52;18.30;99.90
23629;DHT22;11991;57.150;-2.134;2022-08-21T15:34:21;18.50;99.90
23629;DHT22;11991;57.150;-2.134;2022-08-21T15:36:54;18.60;99.90
23629;DHT22;11991;57.150;-2.134;2022-08-21T15:39:25;18.70;99.90
23629;DHT22;11991;57.150;-2.134;2022-08-21T15:41:58;18.70;99.90
23629;DHT22;11991;57.150;-2.134;2022-08-21T15:44:37;18.70;99.90
23629;DHT22;11991;57.150;-2.134;2022-08-21T15:47:10;18.80;99.90
23629;DHT22;11991;57.150;-2.134;2022-08-21T15:49:38;18.90;99.90
23629;DHT22;11991;57.150;-2.134;2022-08-21T15:52:05;18.90;99.90
23629;DHT22;11991;57.150;-2.134;2022-08-21T15:54:32;18.90;99.90
23629;DHT22;11991;57.150;-2.134;2022-08-21T15:57:00;18.90;99.90
23629;DHT22;11991;57.150;-2.134;2022-08-21T15:59:38;19.00;99.90
23629;DHT22;11991;57.150;-2.134;2022-08-21T16:02:14;19.10;99.90
23629;DHT22;11991;57.150;-2.134;2022-08-21T16:04:42;19.20;99.90
23629;DHT22;11991;57.150;-2.134;2022-08-21T16:07:10;19.30;99.90
23629;DHT22;11991;57.150;-2.134;2022-08-21T16:09:38;19.30;99.90
23629;DHT22;11991;57.150;-2.134;2022-08-21T16:12:06;19.20;99.90
23629;DHT22;11991;57.150;-2.134;2022-08-21T16:14:34;19.10;99.90
23629;DHT22;11991;57.150;-2.134;2022-08-21T16:17:07;19.30;99.90
23629;DHT22;11991;57.150;-2.134;2022-08-21T16:19:35;19.40;99.90
23629;DHT22;11991;57.150;-2.134;2022-08-21T16:22:03;19.40;99.90
23629;DHT22;11991;57.150;-2.134;2022-08-21T16:24:30;19.40;99.90
23629;DHT22;11991;57.150;-2.134;2022-08-21T16:27:00;19.30;99.90
23629;DHT22;11991;57.150;-2.134;2022-08-21T16:29:33;19.30;99.90
23629;DHT22;11991;57.150;-2.134;2022-08-21T16:32:03;19.30;99.90
23629;DHT22;11991;57.150;-2.134;2022-08-21T16:34:31;19.30;99.90
23629;DHT22;11991;57.150;-2.134;2022-08-21T16:36:59;19.30;99.90
23629;DHT22;11991;57.150;-2.134;2022-08-21T16:39:27;19.20;99.90
23629;DHT22;11991;57.150;-2.134;2022-08-21T16:41:54;19.20;99.90
23629;DHT22;11991;57.150;-2.134;2022-08-21T16:44:22;19.30;99.90
23629;DHT22;11991;57.150;-2.134;2022-08-21T16:46:49;19.30;99.90
23629;DHT22;11991;57.150;-2.134;2022-08-21T16:49:16;19.30;99.90
23629;DHT22;11991;57.150;-2.134;2022-08-21T16:51:44;19.40;99.90
23629;DHT22;11991;57.150;-2.134;2022-08-21T16:54:11;19.40;99.90
23629;DHT22;11991;57.150;-2.134;2022-08-21T16:56:40;19.30;99.90
23629;DHT22;11991;57.150;-2.134;2022-08-21T16:59:13;19.10;99.90
23629;DHT22;11991;57.150;-2.134;2022-08-21T17:01:43;19.10;99.90
23629;DHT22;11991;57.150;-2.134;2022-08-21T17:04:11;19.10;99.90
23629;DHT22;11991;57.150;-2.134;2022-08-21T17:06:39;19.10;99.90
23629;DHT22;11991;57.150;-2.134;2022-08-21T17:09:06;19.00;99.90
23629;DHT22;11991;57.150;-2.134;2022-08-21T17:11:37;19.00;99.90
23629;DHT22;11991;57.150;-2.134;2022-08-21T17:14:11;18.90;99.90
23629;DHT22;11991;57.150;-2.134;2022-08-21T17:16:43;18.70;99.90
23629;DHT22;11991;57.150;-2.134;2022-08-21T17:19:13;18.80;99.90
23629;DHT22;11991;57.150;-2.134;2022-08-21T17:21:40;18.70;99.90
23629;DHT22;11991;57.150;-2.134;2022-08-21T17:24:08;18.60;99.90
23629;DHT22;11991;57.150;-2.134;2022-08-21T17:26:36;18.50;99.90
23629;DHT22;11991;57.150;-2.134;2022-08-21T17:29:04;18.50;99.90
23629;DHT22;11991;57.150;-2.134;2022-08-21T17:31:37;18.50;99.90
23629;DHT22;11991;57.150;-2.134;2022-08-21T17:34:05;18.50;99.90
23629;DHT22;11991;57.150;-2.134;2022-08-21T17:36:33;18.40;99.90